sensor_id;sensor_type;location;lat;lon;timestamp;P1;durP1;ratioP1;P2;durP2;ratioP2
40122;SDS011;25832;45.490;4.912;2022-08-21T00:00:45;1.60;;;0.82;;
40122;SDS011;25832;45.490;4.912;2022-08-21T00:03:13;3.53;;;1.00;;
40122;SDS011;25832;45.490;4.912;2022-08-21T00:05:40;2.72;;;1.40;;
40122;SDS011;25832;45.490;4.912;2022-08-21T00:08:07;3.00;;;0.93;;
40122;SDS011;25832;45.490;4.912;2022-08-21T00:10:33;5.90;;;1.25;;
40122;SDS011;25832;45.490;4.912;2022-08-21T00:13:03;0.88;;;0.80;;
40122;SDS011;25832;45.490;4.912;2022-08-21T00:15:31;2.65;;;1.25;;
40122;SDS011;25832;45.490;4.912;2022-08-21T00:17:58;1.10;;;0.85;;
40122;SDS011;25832;45.490;4.912;2022-08-21T00:20:24;2.33;;;1.33;;
40122;SDS011;25832;45.490;4.912;2022-08-21T00:22:50;5.78;;;1.35;;
40122;SDS011;25832;45.490;4.912;2022-08-21T00:25:16;5.13;;;0.90;;
40122;SDS011;25832;45.490;4.912;2022-08-21T00:27:44;2.92;;;1.20;;
40122;SDS011;25832;45.490;4.912;2022-08-21T00:30:12;5.90;;;1.17;;
40122;SDS011;25832;45.490;4.912;2022-08-21T00:32:40;1.25;;;1.02;;
40122;SDS011;25832;45.490;4.912;2022-08-21T00:35:09;2.63;;;1.20;;
40122;SDS011;25832;45.490;4.912;2022-08-21T00:37:38;5.28;;;1.10;;
40122;SDS011;25832;45.490;4.912;2022-08-21T00:40:05;2.33;;;1.00;;
40122;SDS011;25832;45.490;4.912;2022-08-21T00:42:33;2.88;;;1.55;;
40122;SDS011;25832;45.490;4.912;2022-08-21T00:44:59;3.03;;;1.23;;
40122;SDS011;25832;45.490;4.912;2022-08-21T00:47:27;2.88;;;1.33;;
40122;SDS011;25832;45.490;4.912;2022-08-21T00:49:52;1.40;;;1.20;;
40122;SDS011;25832;45.490;4.912;2022-08-21T00:52:22;1.83;;;1.23;;
40122;SDS011;25832;45.490;4.912;2022-08-21T00:54:52;2.45;;;0.80;;
40122;SDS011;25832;45.490;4.912;2022-08-21T00:57:30;1.70;;;1.00;;
40122;SDS011;25832;45.490;4.912;2022-08-21T01:00:02;1.58;;;0.90;;
40122;SDS011;25832;45.490;4.912;2022-08-21T01:02:30;2.77;;;1.10;;
40122;SDS011;25832;45.490;4.912;2022-08-21T01:04:56;1.65;;;0.85;;
40122;SDS011;25832;45.490;4.912;2022-08-21T01:07:22;1.35;;;1.10;;
40122;SDS011;25832;45.490;4.912;2022-08-21T01:09:48;9.30;;;1.38;;
40122;SDS011;25832;45.490;4.912;2022-08-21T01:12:14;2.92;;;1.13;;
40122;SDS011;25832;45.490;4.912;2022-08-21T01:14:40;2.35;;;1.30;;
40122;SDS011;25832;45.490;4.912;2022-08-21T01:17:10;4.80;;;1.40;;
40122;SDS011;25832;45.490;4.912;2022-08-21T01:19:39;3.40;;;1.23;;
40122;SDS011;25832;45.490;4.912;2022-08-21T01:22:05;5.05;;;1.45;;
40122;SDS011;25832;45.490;4.912;2022-08-21T01:24:30;4.82;;;1.60;;
40122;SDS011;25832;45.490;4.912;2022-08-21T01:26:57;4.07;;;1.30;;
40122;SDS011;25832;45.490;4.912;2022-08-21T01:32:32;3.45;;;1.58;;
40122;SDS011;25832;45.490;4.912;2022-08-21T01:34:58;8.48;;;1.38;;
40122;SDS011;25832;45.490;4.912;2022-08-21T01:37:24;4.57;;;1.33;;
40122;SDS011;25832;45.490;4.912;2022-08-21T01:39:50;5.68;;;1.60;;
40122;SDS011;25832;45.490;4.912;2022-08-21T01:42:16;1.30;;;1.10;;
40122;SDS011;25832;45.490;4.912;2022-08-21T01:44:42;3.05;;;1.50;;
40122;SDS011;25832;45.490;4.912;2022-08-21T01:47:09;3.10;;;1.40;;
40122;SDS011;25832;45.490;4.912;2022-08-21T01:49:37;4.25;;;1.05;;
40122;SDS011;25832;45.490;4.912;2022-08-21T01:52:03;4.50;;;1.52;;
40122;SDS011;25832;45.490;4.912;2022-08-21T01:54:30;4.50;;;1.60;;
40122;SDS011;25832;45.490;4.912;2022-08-21T01:56:56;2.08;;;1.27;;
40122;SDS011;25832;45.490;4.912;2022-08-21T01:59:24;1.63;;;1.17;;
40122;SDS011;25832;45.490;4.912;2022-08-21T02:01:50;1.58;;;1.13;;
40122;SDS011;25832;45.490;4.912;2022-08-21T02:04:17;3.17;;;1.30;;
40122;SDS011;25832;45.490;4.912;2022-08-21T02:06:43;3.85;;;1.60;;
40122;SDS011;25832;45.490;4.912;2022-08-21T02:09:09;2.35;;;1.63;;
40122;SDS011;25832;45.490;4.912;2022-08-21T02:11:36;1.92;;;1.40;;
40122;SDS011;25832;45.490;4.912;2022-08-21T02:14:05;4.10;;;1.70;;
40122;SDS011;25832;45.490;4.912;2022-08-21T02:16:32;3.67;;;1.30;;
40122;SDS011;25832;45.490;4.912;2022-08-21T02:18:58;2.90;;;1.30;;
40122;SDS011;25832;45.490;4.912;2022-08-21T02:21:24;2.38;;;1.58;;
40122;SDS011;25832;45.490;4.912;2022-08-21T02:23:50;6.68;;;1.70;;
40122;SDS011;25832;45.490;4.912;2022-08-21T02:26:16;10.05;;;2.03;;
40122;SDS011;25832;45.490;4.912;2022-08-21T02:28:42;2.72;;;1.77;;
40122;SDS011;25832;45.490;4.912;2022-08-21T02:31:07;4.32;;;1.67;;
40122;SDS011;25832;45.490;4.912;2022-08-21T02:33:33;7.20;;;1.65;;
40122;SDS011;25832;45.490;4.912;2022-08-21T02:35:59;4.13;;;1.60;;
40122;SDS011;25832;45.490;4.912;2022-08-21T02:38:26;4.82;;;1.55;;
40122;SDS011;25832;45.490;4.912;2022-08-21T02:40:55;6.80;;;1.60;;
40122;SDS011;25832;45.490;4.912;2022-08-21T02:43:23;3.97;;;1.60;;
40122;SDS011;25832;45.490;4.912;2022-08-21T02:45:51;3.50;;;1.73;;
40122;SDS011;25832;45.490;4.912;2022-08-21T02:48:19;3.97;;;1.67;;
40122;SDS011;25832;45.490;4.912;2022-08-21T02:50:47;6.32;;;2.40;;
40122;SDS011;25832;45.490;4.912;2022-08-21T02:53:19;4.50;;;1.60;;
40122;SDS011;25832;45.490;4.912;2022-08-21T02:55:45;6.93;;;1.63;;
40122;SDS011;25832;45.490;4.912;2022-08-21T02:58:13;2.00;;;1.55;;
40122;SDS011;25832;45.490;4.912;2022-08-21T03:00:40;4.53;;;1.52;;
40122;SDS011;25832;45.490;4.912;2022-08-21T03:03:06;3.88;;;1.27;;
40122;SDS011;25832;45.490;4.912;2022-08-21T03:05:33;6.95;;;1.70;;
40122;SDS011;25832;45.490;4.912;2022-08-21T03:08:00;3.03;;;1.48;;
40122;SDS011;25832;45.490;4.912;2022-08-21T03:10:27;5.85;;;2.28;;
40122;SDS011;25832;45.490;4.912;2022-08-21T03:12:53;1.90;;;1.48;;
40122;SDS011;25832;45.490;4.912;2022-08-21T03:15:20;3.80;;;1.42;;
40122;SDS011;25832;45.490;4.912;2022-08-21T03:17:48;1.98;;;1.55;;
40122;SDS011;25832;45.490;4.912;2022-08-21T03:20:16;2.17;;;1.67;;
40122;SDS011;25832;45.490;4.912;2022-08-21T03:22:47;1.85;;;1.45;;
40122;SDS011;25832;45.490;4.912;2022-08-21T03:25:12;3.72;;;1.73;;
40122;SDS011;25832;45.490;4.912;2022-08-21T03:27:38;5.20;;;1.63;;
40122;SDS011;25832;45.490;4.912;2022-08-21T03:30:05;1.58;;;1.33;;
40122;SDS011;25832;45.490;4.912;2022-08-21T03:32:31;3.63;;;1.30;;
40122;SDS011;25832;45.490;4.912;2022-08-21T03:34:57;3.38;;;1.52;;
40122;SDS011;25832;45.490;4.912;2022-08-21T03:37:24;4.28;;;1.85;;
40122;SDS011;25832;45.490;4.912;2022-08-21T03:39:50;3.90;;;1.30;;
40122;SDS011;25832;45.490;4.912;2022-08-21T03:42:16;4.45;;;1.38;;
40122;SDS011;25832;45.490;4.912;2022-08-21T03:44:42;2.78;;;1.55;;
40122;SDS011;25832;45.490;4.912;2022-08-21T03:47:07;3.83;;;1.55;;
40122;SDS011;25832;45.490;4.912;2022-08-21T03:49:34;4.65;;;1.98;;
40122;SDS011;25832;45.490;4.912;2022-08-21T03:52:00;2.55;;;1.08;;
40122;SDS011;25832;45.490;4.912;2022-08-21T03:54:26;2.20;;;1.17;;
40122;SDS011;25832;45.490;4.912;2022-08-21T03:56:52;4.85;;;1.90;;
40122;SDS011;25832;45.490;4.912;2022-08-21T03:59:18;4.25;;;1.90;;
40122;SDS011;25832;45.490;4.912;2022-08-21T04:01:56;3.75;;;1.63;;
40122;SDS011;25832;45.490;4.912;2022-08-21T04:04:24;8.95;;;1.70;;
40122;SDS011;25832;45.490;4.912;2022-08-21T04:06:51;7.57;;;1.52;;
40122;SDS011;25832;45.490;4.912;2022-08-21T04:09:17;5.40;;;1.75;;
40122;SDS011;25832;45.490;4.912;2022-08-21T04:11:43;3.75;;;1.80;;
40122;SDS011;25832;45.490;4.912;2022-08-21T04:14:10;5.60;;;1.88;;
40122;SDS011;25832;45.490;4.912;2022-08-21T04:16:37;4.75;;;1.73;;
40122;SDS011;25832;45.490;4.912;2022-08-21T04:19:03;7.70;;;1.98;;
40122;SDS011;25832;45.490;4.912;2022-08-21T04:21:29;2.40;;;1.33;;
40122;SDS011;25832;45.490;4.912;2022-08-21T04:23:55;2.97;;;1.70;;
40122;SDS011;25832;45.490;4.912;2022-08-21T04:26:21;4.85;;;1.40;;
40122;SDS011;25832;45.490;4.912;2022-08-21T04:28:47;3.35;;;1.27;;
40122;SDS011;25832;45.490;4.912;2022-08-21T04:31:13;2.15;;;1.23;;
40122;SDS011;25832;45.490;4.912;2022-08-21T04:33:38;2.47;;;1.60;;
40122;SDS011;25832;45.490;4.912;2022-08-21T04:36:04;6.55;;;1.65;;
40122;SDS011;25832;45.490;4.912;2022-08-21T04:38:31;1.90;;;1.25;;
40122;SDS011;25832;45.490;4.912;2022-08-21T04:40:57;1.63;;;1.40;;
40122;SDS011;25832;45.490;4.912;2022-08-21T04:43:23;3.17;;;1.17;;
40122;SDS011;25832;45.490;4.912;2022-08-21T04:45:49;3.55;;;1.73;;
40122;SDS011;25832;45.490;4.912;2022-08-21T04:48:18;5.00;;;1.58;;
40122;SDS011;25832;45.490;4.912;2022-08-21T04:53:36;4.60;;;1.90;;
40122;SDS011;25832;45.490;4.912;2022-08-21T04:56:09;2.88;;;1.92;;
40122;SDS011;25832;45.490;4.912;2022-08-21T04:58:40;4.13;;;1.52;;
40122;SDS011;25832;45.490;4.912;2022-08-21T05:01:09;3.25;;;1.75;;
40122;SDS011;25832;45.490;4.912;2022-08-21T05:03:40;3.55;;;1.77;;
40122;SDS011;25832;45.490;4.912;2022-08-21T05:06:07;7.05;;;2.00;;
40122;SDS011;25832;45.490;4.912;2022-08-21T05:08:35;4.35;;;2.10;;
40122;SDS011;25832;45.490;4.912;2022-08-21T05:11:02;2.90;;;1.75;;
40122;SDS011;25832;45.490;4.912;2022-08-21T05:13:28;5.35;;;2.15;;
40122;SDS011;25832;45.490;4.912;2022-08-21T05:15:55;3.80;;;2.10;;
40122;SDS011;25832;45.490;4.912;2022-08-21T05:18:21;4.35;;;1.70;;
40122;SDS011;25832;45.490;4.912;2022-08-21T05:20:46;5.82;;;2.03;;
40122;SDS011;25832;45.490;4.912;2022-08-21T05:23:12;6.45;;;2.10;;
40122;SDS011;25832;45.490;4.912;2022-08-21T05:25:39;5.13;;;2.10;;
40122;SDS011;25832;45.490;4.912;2022-08-21T05:28:05;4.85;;;2.63;;
40122;SDS011;25832;45.490;4.912;2022-08-21T05:30:31;6.70;;;1.83;;
40122;SDS011;25832;45.490;4.912;2022-08-21T05:32:58;2.17;;;1.92;;
40122;SDS011;25832;45.490;4.912;2022-08-21T05:35:25;4.53;;;2.33;;
40122;SDS011;25832;45.490;4.912;2022-08-21T05:37:51;9.18;;;2.03;;
40122;SDS011;25832;45.490;4.912;2022-08-21T05:40:17;4.10;;;2.08;;
40122;SDS011;25832;45.490;4.912;2022-08-21T05:42:43;1.73;;;1.35;;
40122;SDS011;25832;45.490;4.912;2022-08-21T05:45:09;4.22;;;2.08;;
40122;SDS011;25832;45.490;4.912;2022-08-21T05:47:35;3.17;;;2.10;;
40122;SDS011;25832;45.490;4.912;2022-08-21T05:50:00;5.47;;;1.90;;
40122;SDS011;25832;45.490;4.912;2022-08-21T05:52:26;3.67;;;1.52;;
40122;SDS011;25832;45.490;4.912;2022-08-21T05:54:52;5.22;;;1.85;;
40122;SDS011;25832;45.490;4.912;2022-08-21T05:57:19;2.38;;;1.60;;
40122;SDS011;25832;45.490;4.912;2022-08-21T05:59:45;2.72;;;1.30;;
40122;SDS011;25832;45.490;4.912;2022-08-21T06:02:11;8.02;;;2.20;;
40122;SDS011;25832;45.490;4.912;2022-08-21T06:04:40;3.30;;;2.15;;
40122;SDS011;25832;45.490;4.912;2022-08-21T06:07:06;3.47;;;1.75;;
40122;SDS011;25832;45.490;4.912;2022-08-21T06:09:32;5.25;;;2.65;;
40122;SDS011;25832;45.490;4.912;2022-08-21T06:11:57;5.03;;;1.90;;
40122;SDS011;25832;45.490;4.912;2022-08-21T06:14:27;4.50;;;1.80;;
40122;SDS011;25832;45.490;4.912;2022-08-21T06:16:53;4.40;;;1.70;;
40122;SDS011;25832;45.490;4.912;2022-08-21T06:19:18;3.35;;;1.67;;
40122;SDS011;25832;45.490;4.912;2022-08-21T06:21:44;3.80;;;1.55;;
40122;SDS011;25832;45.490;4.912;2022-08-21T06:24:10;5.18;;;1.55;;
40122;SDS011;25832;45.490;4.912;2022-08-21T06:26:35;6.40;;;2.65;;
40122;SDS011;25832;45.490;4.912;2022-08-21T06:29:02;3.80;;;1.58;;
40122;SDS011;25832;45.490;4.912;2022-08-21T06:31:28;3.28;;;1.92;;
40122;SDS011;25832;45.490;4.912;2022-08-21T06:33:54;2.90;;;1.45;;
40122;SDS011;25832;45.490;4.912;2022-08-21T06:36:19;5.78;;;1.63;;
40122;SDS011;25832;45.490;4.912;2022-08-21T06:38:46;5.00;;;1.77;;
40122;SDS011;25832;45.490;4.912;2022-08-21T06:41:11;4.32;;;1.50;;
40122;SDS011;25832;45.490;4.912;2022-08-21T06:43:37;4.78;;;1.45;;
40122;SDS011;25832;45.490;4.912;2022-08-21T06:46:03;5.10;;;1.50;;
40122;SDS011;25832;45.490;4.912;2022-08-21T06:48:29;6.03;;;1.50;;
40122;SDS011;25832;45.490;4.912;2022-08-21T06:50:58;3.83;;;1.45;;
40122;SDS011;25832;45.490;4.912;2022-08-21T06:53:24;3.78;;;1.52;;
40122;SDS011;25832;45.490;4.912;2022-08-21T06:55:50;4.60;;;1.77;;
40122;SDS011;25832;45.490;4.912;2022-08-21T06:58:16;2.85;;;1.52;;
40122;SDS011;25832;45.490;4.912;2022-08-21T07:00:43;3.63;;;1.52;;
40122;SDS011;25832;45.490;4.912;2022-08-21T07:03:30;5.45;;;1.20;;
40122;SDS011;25832;45.490;4.912;2022-08-21T07:06:06;3.50;;;1.42;;
40122;SDS011;25832;45.490;4.912;2022-08-21T07:08:34;5.32;;;1.52;;
40122;SDS011;25832;45.490;4.912;2022-08-21T07:11:01;3.10;;;1.30;;
40122;SDS011;25832;45.490;4.912;2022-08-21T07:13:28;2.33;;;1.25;;
40122;SDS011;25832;45.490;4.912;2022-08-21T07:15:54;6.97;;;1.80;;
40122;SDS011;25832;45.490;4.912;2022-08-21T07:18:20;2.33;;;1.48;;
40122;SDS011;25832;45.490;4.912;2022-08-21T07:20:46;7.90;;;1.55;;
40122;SDS011;25832;45.490;4.912;2022-08-21T07:23:14;4.00;;;1.40;;
40122;SDS011;25832;45.490;4.912;2022-08-21T07:25:46;2.38;;;1.92;;
40122;SDS011;25832;45.490;4.912;2022-08-21T07:28:11;5.43;;;1.35;;
40122;SDS011;25832;45.490;4.912;2022-08-21T07:30:37;4.45;;;1.58;;
40122;SDS011;25832;45.490;4.912;2022-08-21T07:33:03;9.65;;;1.90;;
40122;SDS011;25832;45.490;4.912;2022-08-21T07:35:28;3.03;;;2.03;;
40122;SDS011;25832;45.490;4.912;2022-08-21T07:37:56;5.18;;;1.25;;
40122;SDS011;25832;45.490;4.912;2022-08-21T07:40:21;6.43;;;1.75;;
40122;SDS011;25832;45.490;4.912;2022-08-21T07:42:47;3.03;;;1.50;;
40122;SDS011;25832;45.490;4.912;2022-08-21T07:45:16;8.05;;;1.42;;
40122;SDS011;25832;45.490;4.912;2022-08-21T07:47:48;4.32;;;1.67;;
40122;SDS011;25832;45.490;4.912;2022-08-21T07:50:14;4.10;;;1.13;;
40122;SDS011;25832;45.490;4.912;2022-08-21T07:52:40;2.53;;;1.30;;
40122;SDS011;25832;45.490;4.912;2022-08-21T07:55:07;3.95;;;1.38;;
40122;SDS011;25832;45.490;4.912;2022-08-21T07:57:35;3.53;;;1.58;;
40122;SDS011;25832;45.490;4.912;2022-08-21T08:00:03;3.40;;;1.58;;
40122;SDS011;25832;45.490;4.912;2022-08-21T08:02:30;2.58;;;1.50;;
40122;SDS011;25832;45.490;4.912;2022-08-21T08:04:59;4.97;;;1.50;;
40122;SDS011;25832;45.490;4.912;2022-08-21T08:07:31;3.58;;;2.15;;
40122;SDS011;25832;45.490;4.912;2022-08-21T08:09:57;4.47;;;1.50;;
40122;SDS011;25832;45.490;4.912;2022-08-21T08:12:23;6.18;;;2.00;;
40122;SDS011;25832;45.490;4.912;2022-08-21T08:14:55;3.75;;;1.80;;
40122;SDS011;25832;45.490;4.912;2022-08-21T08:17:21;5.75;;;1.65;;
40122;SDS011;25832;45.490;4.912;2022-08-21T08:19:48;5.78;;;2.08;;
40122;SDS011;25832;45.490;4.912;2022-08-21T08:22:15;5.43;;;2.30;;
40122;SDS011;25832;45.490;4.912;2022-08-21T08:24:44;6.40;;;2.03;;
40122;SDS011;25832;45.490;4.912;2022-08-21T08:27:11;4.80;;;1.88;;
40122;SDS011;25832;45.490;4.912;2022-08-21T08:29:37;7.28;;;1.65;;
40122;SDS011;25832;45.490;4.912;2022-08-21T08:32:03;4.68;;;1.60;;
40122;SDS011;25832;45.490;4.912;2022-08-21T08:34:32;4.40;;;2.25;;
40122;SDS011;25832;45.490;4.912;2022-08-21T08:36:58;5.63;;;2.88;;
40122;SDS011;25832;45.490;4.912;2022-08-21T08:39:24;7.30;;;2.17;;
40122;SDS011;25832;45.490;4.912;2022-08-21T08:41:54;7.50;;;2.22;;
40122;SDS011;25832;45.490;4.912;2022-08-21T08:44:26;6.45;;;2.33;;
40122;SDS011;25832;45.490;4.912;2022-08-21T08:46:52;5.10;;;2.45;;
40122;SDS011;25832;45.490;4.912;2022-08-21T08:52:14;5.60;;;1.88;;
40122;SDS011;25832;45.490;4.912;2022-08-21T08:54:51;10.43;;;2.10;;
40122;SDS011;25832;45.490;4.912;2022-08-21T08:57:35;10.90;;;3.63;;
40122;SDS011;25832;45.490;4.912;2022-08-21T09:00:07;4.75;;;1.60;;
40122;SDS011;25832;45.490;4.912;2022-08-21T09:02:38;3.42;;;1.80;;
40122;SDS011;25832;45.490;4.912;2022-08-21T09:05:04;6.22;;;2.63;;
40122;SDS011;25832;45.490;4.912;2022-08-21T09:10:06;4.20;;;1.50;;
40122;SDS011;25832;45.490;4.912;2022-08-21T09:23:46;4.20;;;1.80;;
40122;SDS011;25832;45.490;4.912;2022-08-21T09:26:21;5.43;;;2.20;;
40122;SDS011;25832;45.490;4.912;2022-08-21T09:28:53;4.70;;;2.05;;
40122;SDS011;25832;45.490;4.912;2022-08-21T09:31:27;4.68;;;1.60;;
40122;SDS011;25832;45.490;4.912;2022-08-21T09:34:06;4.22;;;1.83;;
40122;SDS011;25832;45.490;4.912;2022-08-21T09:39:08;4.70;;;1.80;;
40122;SDS011;25832;45.490;4.912;2022-08-21T09:41:36;4.30;;;2.35;;
40122;SDS011;25832;45.490;4.912;2022-08-21T09:44:04;5.15;;;1.60;;
40122;SDS011;25832;45.490;4.912;2022-08-21T09:46:31;3.92;;;1.70;;
40122;SDS011;25832;45.490;4.912;2022-08-21T09:48:58;3.33;;;1.83;;
40122;SDS011;25832;45.490;4.912;2022-08-21T09:51:27;3.92;;;1.60;;
40122;SDS011;25832;45.490;4.912;2022-08-21T09:54:19;6.63;;;2.03;;
40122;SDS011;25832;45.490;4.912;2022-08-21T09:57:00;3.40;;;2.08;;
40122;SDS011;25832;45.490;4.912;2022-08-21T09:59:55;3.45;;;1.70;;
40122;SDS011;25832;45.490;4.912;2022-08-21T10:02:42;5.22;;;2.05;;
40122;SDS011;25832;45.490;4.912;2022-08-21T10:05:15;2.45;;;1.45;;
40122;SDS011;25832;45.490;4.912;2022-08-21T10:07:47;2.90;;;1.50;;
40122;SDS011;25832;45.490;4.912;2022-08-21T10:12:49;6.28;;;2.45;;
40122;SDS011;25832;45.490;4.912;2022-08-21T10:20:37;4.40;;;1.73;;
40122;SDS011;25832;45.490;4.912;2022-08-21T10:23:45;5.22;;;1.23;;
40122;SDS011;25832;45.490;4.912;2022-08-21T10:29:22;2.80;;;1.23;;
40122;SDS011;25832;45.490;4.912;2022-08-21T10:36:59;5.05;;;1.60;;
40122;SDS011;25832;45.490;4.912;2022-08-21T10:45:10;4.93;;;1.52;;
40122;SDS011;25832;45.490;4.912;2022-08-21T10:47:53;8.23;;;2.13;;
40122;SDS011;25832;45.490;4.912;2022-08-21T10:55:22;4.65;;;1.50;;
40122;SDS011;25832;45.490;4.912;2022-08-21T10:57:57;3.13;;;1.90;;
40122;SDS011;25832;45.490;4.912;2022-08-21T11:01:00;3.90;;;1.80;;
40122;SDS011;25832;45.490;4.912;2022-08-21T11:03:23;4.47;;;1.85;;
40122;SDS011;25832;45.490;4.912;2022-08-21T11:06:05;7.93;;;1.40;;
40122;SDS011;25832;45.490;4.912;2022-08-21T11:08:39;4.43;;;1.80;;
40122;SDS011;25832;45.490;4.912;2022-08-21T11:11:31;3.25;;;1.58;;
40122;SDS011;25832;45.490;4.912;2022-08-21T11:16:53;2.28;;;1.20;;
40122;SDS011;25832;45.490;4.912;2022-08-21T11:19:38;4.15;;;1.83;;
40122;SDS011;25832;45.490;4.912;2022-08-21T11:22:08;2.83;;;1.33;;
40122;SDS011;25832;45.490;4.912;2022-08-21T11:24:44;5.40;;;1.67;;
40122;SDS011;25832;45.490;4.912;2022-08-21T11:27:26;4.65;;;1.58;;
40122;SDS011;25832;45.490;4.912;2022-08-21T11:30:01;4.15;;;1.45;;
40122;SDS011;25832;45.490;4.912;2022-08-21T11:34:57;4.63;;;1.70;;
40122;SDS011;25832;45.490;4.912;2022-08-21T11:43:16;1.95;;;1.50;;
40122;SDS011;25832;45.490;4.912;2022-08-21T11:51:20;2.67;;;1.33;;
40122;SDS011;25832;45.490;4.912;2022-08-21T11:54:03;3.70;;;1.30;;
40122;SDS011;25832;45.490;4.912;2022-08-21T11:56:37;3.25;;;1.48;;
40122;SDS011;25832;45.490;4.912;2022-08-21T11:59:20;4.47;;;1.33;;
40122;SDS011;25832;45.490;4.912;2022-08-21T12:01:52;4.53;;;1.60;;
40122;SDS011;25832;45.490;4.912;2022-08-21T12:04:26;7.75;;;2.03;;
40122;SDS011;25832;45.490;4.912;2022-08-21T12:06:54;10.48;;;1.55;;
40122;SDS011;25832;45.490;4.912;2022-08-21T12:12:11;3.00;;;1.38;;
40122;SDS011;25832;45.490;4.912;2022-08-21T12:15:04;3.90;;;1.67;;
40122;SDS011;25832;45.490;4.912;2022-08-21T12:23:17;2.38;;;1.33;;
40122;SDS011;25832;45.490;4.912;2022-08-21T12:25:46;2.35;;;1.30;;
40122;SDS011;25832;45.490;4.912;2022-08-21T12:28:32;2.72;;;1.35;;
40122;SDS011;25832;45.490;4.912;2022-08-21T12:30:59;4.05;;;1.65;;
40122;SDS011;25832;45.490;4.912;2022-08-21T12:33:30;7.20;;;2.00;;
40122;SDS011;25832;45.490;4.912;2022-08-21T12:36:24;3.65;;;1.48;;
40122;SDS011;25832;45.490;4.912;2022-08-21T12:41:24;2.88;;;1.85;;
40122;SDS011;25832;45.490;4.912;2022-08-21T12:44:10;2.33;;;1.17;;
40122;SDS011;25832;45.490;4.912;2022-08-21T12:46:44;2.63;;;1.33;;
40122;SDS011;25832;45.490;4.912;2022-08-21T12:49:14;1.95;;;1.40;;
40122;SDS011;25832;45.490;4.912;2022-08-21T12:51:54;2.03;;;1.48;;
40122;SDS011;25832;45.490;4.912;2022-08-21T12:55:00;3.88;;;1.40;;
40122;SDS011;25832;45.490;4.912;2022-08-21T12:57:27;5.60;;;1.17;;
40122;SDS011;25832;45.490;4.912;2022-08-21T12:59:55;3.70;;;1.40;;
40122;SDS011;25832;45.490;4.912;2022-08-21T13:02:32;3.05;;;1.52;;
40122;SDS011;25832;45.490;4.912;2022-08-21T13:05:03;4.50;;;2.00;;
40122;SDS011;25832;45.490;4.912;2022-08-21T13:07:31;4.93;;;2.08;;
40122;SDS011;25832;45.490;4.912;2022-08-21T13:10:02;5.55;;;2.20;;
40122;SDS011;25832;45.490;4.912;2022-08-21T13:12:31;3.80;;;1.65;;
40122;SDS011;25832;45.490;4.912;2022-08-21T13:14:59;3.60;;;1.70;;
40122;SDS011;25832;45.490;4.912;2022-08-21T13:17:30;4.70;;;1.88;;
40122;SDS011;25832;45.490;4.912;2022-08-21T13:20:01;1.58;;;1.35;;
40122;SDS011;25832;45.490;4.912;2022-08-21T13:22:30;4.97;;;1.70;;
40122;SDS011;25832;45.490;4.912;2022-08-21T13:24:56;3.72;;;2.47;;
40122;SDS011;25832;45.490;4.912;2022-08-21T13:27:29;4.95;;;2.15;;
40122;SDS011;25832;45.490;4.912;2022-08-21T13:32:33;2.88;;;1.77;;
40122;SDS011;25832;45.490;4.912;2022-08-21T13:35:16;4.85;;;1.98;;
40122;SDS011;25832;45.490;4.912;2022-08-21T13:37:45;4.90;;;2.03;;
40122;SDS011;25832;45.490;4.912;2022-08-21T13:40:14;5.55;;;2.05;;
40122;SDS011;25832;45.490;4.912;2022-08-21T13:42:43;6.05;;;1.92;;
40122;SDS011;25832;45.490;4.912;2022-08-21T13:45:12;3.85;;;1.92;;
40122;SDS011;25832;45.490;4.912;2022-08-21T13:47:39;6.82;;;2.13;;
40122;SDS011;25832;45.490;4.912;2022-08-21T13:50:05;3.65;;;2.20;;
40122;SDS011;25832;45.490;4.912;2022-08-21T13:52:32;4.57;;;1.95;;
40122;SDS011;25832;45.490;4.912;2022-08-21T13:54:59;5.72;;;2.30;;
40122;SDS011;25832;45.490;4.912;2022-08-21T13:57:33;3.78;;;2.15;;
40122;SDS011;25832;45.490;4.912;2022-08-21T14:02:43;4.88;;;2.78;;
40122;SDS011;25832;45.490;4.912;2022-08-21T14:05:16;6.33;;;2.20;;
40122;SDS011;25832;45.490;4.912;2022-08-21T14:07:46;3.30;;;1.83;;
40122;SDS011;25832;45.490;4.912;2022-08-21T14:10:19;4.70;;;2.47;;
40122;SDS011;25832;45.490;4.912;2022-08-21T14:12:47;6.65;;;2.03;;
40122;SDS011;25832;45.490;4.912;2022-08-21T14:15:23;4.90;;;2.30;;
40122;SDS011;25832;45.490;4.912;2022-08-21T14:17:54;5.10;;;2.28;;
40122;SDS011;25832;45.490;4.912;2022-08-21T14:20:33;9.18;;;2.70;;
40122;SDS011;25832;45.490;4.912;2022-08-21T14:23:00;4.40;;;2.05;;
40122;SDS011;25832;45.490;4.912;2022-08-21T14:27:55;5.38;;;2.35;;
40122;SDS011;25832;45.490;4.912;2022-08-21T14:30:31;5.28;;;1.80;;
40122;SDS011;25832;45.490;4.912;2022-08-21T14:32:59;4.13;;;2.10;;
40122;SDS011;25832;45.490;4.912;2022-08-21T14:35:25;4.30;;;1.92;;
40122;SDS011;25832;45.490;4.912;2022-08-21T14:37:51;7.40;;;2.30;;
40122;SDS011;25832;45.490;4.912;2022-08-21T14:40:18;7.60;;;2.55;;
40122;SDS011;25832;45.490;4.912;2022-08-21T14:42:44;4.50;;;1.90;;
40122;SDS011;25832;45.490;4.912;2022-08-21T14:45:23;4.32;;;2.28;;
40122;SDS011;25832;45.490;4.912;2022-08-21T14:47:52;8.82;;;2.97;;
40122;SDS011;25832;45.490;4.912;2022-08-21T14:50:18;4.30;;;2.70;;
40122;SDS011;25832;45.490;4.912;2022-08-21T14:52:44;8.27;;;2.92;;
40122;SDS011;25832;45.490;4.912;2022-08-21T14:55:10;6.65;;;3.17;;
40122;SDS011;25832;45.490;4.912;2022-08-21T14:57:41;6.13;;;2.22;;
40122;SDS011;25832;45.490;4.912;2022-08-21T15:00:09;4.75;;;2.22;;
40122;SDS011;25832;45.490;4.912;2022-08-21T15:02:37;12.18;;;2.35;;
40122;SDS011;25832;45.490;4.912;2022-08-21T15:05:04;6.60;;;2.78;;
40122;SDS011;25832;45.490;4.912;2022-08-21T15:07:30;4.75;;;2.83;;
40122;SDS011;25832;45.490;4.912;2022-08-21T15:09:56;5.47;;;2.60;;
40122;SDS011;25832;45.490;4.912;2022-08-21T15:12:22;7.00;;;2.92;;
40122;SDS011;25832;45.490;4.912;2022-08-21T15:14:49;6.03;;;2.65;;
40122;SDS011;25832;45.490;4.912;2022-08-21T15:17:15;4.95;;;2.22;;
40122;SDS011;25832;45.490;4.912;2022-08-21T15:19:41;6.57;;;2.75;;
40122;SDS011;25832;45.490;4.912;2022-08-21T15:22:06;4.90;;;2.80;;
40122;SDS011;25832;45.490;4.912;2022-08-21T15:24:32;3.97;;;2.38;;
40122;SDS011;25832;45.490;4.912;2022-08-21T15:26:59;5.68;;;3.08;;
40122;SDS011;25832;45.490;4.912;2022-08-21T15:29:26;4.60;;;2.22;;
40122;SDS011;25832;45.490;4.912;2022-08-21T15:31:55;5.25;;;2.60;;
40122;SDS011;25832;45.490;4.912;2022-08-21T15:34:22;4.60;;;3.00;;
40122;SDS011;25832;45.490;4.912;2022-08-21T15:36:49;5.18;;;3.03;;
40122;SDS011;25832;45.490;4.912;2022-08-21T15:39:15;5.25;;;2.70;;
40122;SDS011;25832;45.490;4.912;2022-08-21T15:41:41;7.53;;;3.08;;
40122;SDS011;25832;45.490;4.912;2022-08-21T15:44:08;7.25;;;2.50;;
40122;SDS011;25832;45.490;4.912;2022-08-21T15:46:36;6.20;;;2.53;;
40122;SDS011;25832;45.490;4.912;2022-08-21T15:49:02;5.93;;;2.30;;
40122;SDS011;25832;45.490;4.912;2022-08-21T15:51:28;7.10;;;3.45;;
40122;SDS011;25832;45.490;4.912;2022-08-21T15:53:53;5.47;;;2.45;;
40122;SDS011;25832;45.490;4.912;2022-08-21T15:59:17;7.18;;;2.92;;
40122;SDS011;25832;45.490;4.912;2022-08-21T16:01:46;9.30;;;3.00;;
40122;SDS011;25832;45.490;4.912;2022-08-21T16:04:24;5.28;;;3.20;;
40122;SDS011;25832;45.490;4.912;2022-08-21T16:06:51;5.70;;;3.15;;
40122;SDS011;25832;45.490;4.912;2022-08-21T16:09:18;7.78;;;4.00;;
40122;SDS011;25832;45.490;4.912;2022-08-21T16:11:44;6.55;;;3.08;;
40122;SDS011;25832;45.490;4.912;2022-08-21T16:14:14;7.60;;;3.03;;
40122;SDS011;25832;45.490;4.912;2022-08-21T16:16:40;5.72;;;3.33;;
40122;SDS011;25832;45.490;4.912;2022-08-21T16:19:06;7.95;;;3.28;;
40122;SDS011;25832;45.490;4.912;2022-08-21T16:21:33;6.35;;;2.83;;
40122;SDS011;25832;45.490;4.912;2022-08-21T16:24:00;7.85;;;3.20;;
40122;SDS011;25832;45.490;4.912;2022-08-21T16:26:26;6.63;;;3.00;;
40122;SDS011;25832;45.490;4.912;2022-08-21T16:28:54;5.32;;;2.67;;